createdAt,value
2017-11-18T00:00:15.081Z,8.80
2017-11-18T00:02:44.911Z,9.80
2017-11-18T00:05:13.045Z,8.57
2017-11-18T00:07:41.159Z,8.07
2017-11-18T00:10:09.307Z,8.97
2017-11-18T00:12:37.415Z,8.73
2017-11-18T00:15:05.541Z,7.10
2017-11-18T00:17:33.674Z,9.23
2017-11-18T00:20:02.584Z,9.63
2017-11-18T00:22:30.702Z,9.53
2017-11-18T00:24:58.860Z,11.63
2017-11-18T00:27:26.984Z,11.50
2017-11-18T00:29:55.904Z,10.57
2017-11-18T00:32:24.040Z,11.10
2017-11-18T00:34:52.949Z,9.17
2017-11-18T00:37:21.061Z,10.80
2017-11-18T00:39:49.209Z,10.07
2017-11-18T00:42:17.327Z,11.50
2017-11-18T00:44:45.887Z,11.50
2017-11-18T00:47:13.999Z,10.80
2017-11-18T00:49:42.139Z,11.90
2017-11-18T00:52:10.252Z,11.37
2017-11-18T00:54:39.148Z,11.30
2017-11-18T00:57:08.034Z,10.50
2017-11-18T00:59:36.941Z,10.47
2017-11-18T01:02:05.108Z,10.83
2017-11-18T01:04:34.015Z,11.23
2017-11-18T01:07:02.139Z,12.17
2017-11-18T01:09:30.261Z,9.97
2017-11-18T01:11:58.388Z,9.67
2017-11-18T01:14:26.535Z,11.00
2017-11-18T01:16:54.682Z,11.30
2017-11-18T01:19:22.799Z,12.30
2017-11-18T01:21:50.931Z,10.27
2017-11-18T01:24:19.039Z,9.87
2017-11-18T01:26:47.172Z,10.50
2017-11-18T01:29:15.271Z,10.33
2017-11-18T01:31:43.414Z,10.43
2017-11-18T01:34:11.523Z,11.33
2017-11-18T01:36:39.660Z,10.60
2017-11-18T01:39:07.779Z,11.33
2017-11-18T01:41:35.906Z,10.30
2017-11-18T01:44:04.043Z,10.60
2017-11-18T01:46:32.176Z,11.17
2017-11-18T01:49:00.300Z,11.57
2017-11-18T01:51:29.205Z,12.13
2017-11-18T01:53:58.093Z,11.17
2017-11-18T01:56:26.999Z,11.60
2017-11-18T01:58:55.118Z,12.73
2017-11-18T02:01:23.274Z,11.00
2017-11-18T02:03:51.407Z,10.40
2017-11-18T02:06:20.308Z,11.40
2017-11-18T02:08:48.414Z,11.77
2017-11-18T02:11:16.559Z,10.83
2017-11-18T02:13:44.683Z,11.53
2017-11-18T02:16:12.821Z,10.30
2017-11-18T02:18:40.935Z,11.63
2017-11-18T02:21:09.112Z,10.67
2017-11-18T02:23:37.218Z,11.63
2017-11-18T02:26:05.367Z,10.27
2017-11-18T02:28:34.271Z,10.70
2017-11-18T02:31:03.189Z,11.50
2017-11-18T02:33:31.309Z,11.70
2017-11-18T02:35:59.442Z,10.50
2017-11-18T02:38:27.589Z,11.90
2017-11-18T02:40:55.728Z,10.40
2017-11-18T02:43:23.867Z,12.80
2017-11-18T02:45:51.982Z,11.37
2017-11-18T02:48:20.113Z,11.10
2017-11-18T02:50:48.238Z,10.87
2017-11-18T02:53:17.158Z,10.60
2017-11-18T02:55:45.293Z,11.67
2017-11-18T02:58:14.193Z,11.60
2017-11-18T03:00:43.111Z,10.53
2017-11-18T03:03:11.250Z,10.47
2017-11-18T03:05:39.396Z,11.93
2017-11-18T03:08:07.583Z,9.87
2017-11-18T03:10:35.702Z,11.40
2017-11-18T03:13:03.929Z,11.20
2017-11-18T03:15:32.058Z,11.60
2017-11-18T03:18:00.197Z,10.43
2017-11-18T03:20:29.087Z,10.70
2017-11-18T03:22:57.978Z,10.40
2017-11-18T03:25:26.892Z,11.50
2017-11-18T03:27:55.032Z,11.73
2017-11-18T03:30:23.164Z,11.67
2017-11-18T03:32:51.316Z,11.80
2017-11-18T03:35:19.426Z,11.60
2017-11-18T03:37:47.557Z,11.47
2017-11-18T03:40:15.677Z,11.63
2017-11-18T03:42:43.819Z,11.37
2017-11-18T03:45:11.922Z,12.40
2017-11-18T03:47:40.068Z,11.00
2017-11-18T03:50:08.210Z,12.97
2017-11-18T03:52:37.099Z,11.50
2017-11-18T03:55:05.987Z,11.60
2017-11-18T03:57:34.876Z,11.73
2017-11-18T04:00:03.859Z,12.87
2017-11-18T04:02:37.582Z,12.07
2017-11-18T04:05:06.482Z,12.10
2017-11-18T04:07:34.597Z,11.63
2017-11-18T04:10:02.771Z,12.13
2017-11-18T04:12:30.881Z,11.60
2017-11-18T04:14:59.789Z,12.50
2017-11-18T04:17:27.914Z,11.60
2017-11-18T04:19:56.042Z,12.17
2017-11-18T04:22:24.177Z,12.50
2017-11-18T04:24:53.091Z,11.90
2017-11-18T04:27:21.970Z,12.70
2017-11-18T04:29:50.894Z,10.80
2017-11-18T04:32:19.030Z,12.30
2017-11-18T04:34:47.197Z,12.50
2017-11-18T04:37:15.319Z,11.67
2017-11-18T04:39:43.468Z,10.17
2017-11-18T04:42:12.356Z,11.70
2017-11-18T04:44:41.260Z,11.30
2017-11-18T04:47:09.406Z,11.70
2017-11-18T04:49:37.537Z,11.30
2017-11-18T04:52:05.681Z,12.20
2017-11-18T04:54:33.848Z,12.40
2017-11-18T04:57:02.016Z,12.30
2017-11-18T04:59:30.170Z,12.30
2017-11-18T05:01:58.281Z,12.30
2017-11-18T05:04:26.420Z,11.37
2017-11-18T05:06:55.342Z,13.53
2017-11-18T05:09:23.525Z,11.70
2017-11-18T05:11:51.638Z,11.80
2017-11-18T05:14:19.803Z,12.33
2017-11-18T05:16:47.906Z,10.90
2017-11-18T05:19:16.048Z,12.60
2017-11-18T05:21:44.170Z,11.30
2017-11-18T05:24:13.101Z,12.00
2017-11-18T05:26:41.258Z,11.27
2017-11-18T05:29:09.428Z,11.60
2017-11-18T05:31:37.586Z,11.23
2017-11-18T05:34:06.784Z,11.77
2017-11-18T05:36:35.791Z,12.23
2017-11-18T05:39:03.909Z,11.13
2017-11-18T05:41:32.037Z,10.47
2017-11-18T05:44:00.159Z,11.50
2017-11-18T05:46:28.302Z,11.37
2017-11-18T05:48:56.446Z,12.20
2017-11-18T05:51:24.598Z,10.63
2017-11-18T05:53:52.713Z,11.63
2017-11-18T05:56:20.858Z,11.00
2017-11-18T05:58:49.739Z,10.20
2017-11-18T06:01:17.887Z,10.60
2017-11-18T06:03:46.005Z,10.60
2017-11-18T06:06:14.931Z,12.30
2017-11-18T06:08:43.120Z,11.67
2017-11-18T06:11:11.263Z,11.80
2017-11-18T06:13:39.376Z,9.47
2017-11-18T06:16:07.515Z,11.03
2017-11-18T06:18:35.631Z,12.37
2017-11-18T06:21:03.877Z,9.90
2017-11-18T06:23:32.064Z,9.30
2017-11-18T06:26:00.201Z,10.57
2017-11-18T06:28:28.335Z,9.70
2017-11-18T06:30:56.485Z,12.67
2017-11-18T06:33:25.064Z,10.20
2017-11-18T06:35:54.215Z,10.47
2017-11-18T06:38:22.324Z,10.77
2017-11-18T06:40:51.766Z,9.87
2017-11-18T06:43:19.873Z,9.17
2017-11-18T06:46:00.493Z,9.77
2017-11-18T06:48:28.614Z,9.23
2017-11-18T06:50:56.755Z,9.47
2017-11-18T06:53:26.112Z,10.30
2017-11-18T06:55:54.233Z,8.60
2017-11-18T06:58:22.386Z,9.10
2017-11-18T07:00:50.518Z,10.23
2017-11-18T07:03:18.678Z,8.23
2017-11-18T07:05:46.809Z,8.60
2017-11-18T07:08:14.933Z,10.00
2017-11-18T07:10:43.859Z,8.23
2017-11-18T07:13:12.004Z,7.13
2017-11-18T07:15:40.934Z,8.40
2017-11-18T07:18:09.267Z,8.67
2017-11-18T07:20:37.552Z,8.50
2017-11-18T07:23:06.498Z,8.90
2017-11-18T07:25:34.607Z,9.00
2017-11-18T07:28:02.818Z,8.30
2017-11-18T07:30:31.059Z,9.43
2017-11-18T07:33:00.084Z,8.70
2017-11-18T07:35:28.198Z,8.10
2017-11-18T07:37:56.353Z,8.00
2017-11-18T07:40:24.466Z,7.87
2017-11-18T07:42:52.938Z,9.00
2017-11-18T07:45:21.860Z,8.93
2017-11-18T07:47:50.078Z,8.60
2017-11-18T07:50:18.958Z,7.90
2017-11-18T07:52:47.854Z,8.00
2017-11-18T07:55:17.365Z,8.10
2017-11-18T07:57:46.762Z,8.07
2017-11-18T08:00:16.133Z,6.47
2017-11-18T08:02:45.530Z,7.37
2017-11-18T08:05:14.896Z,7.60
2017-11-18T08:07:44.328Z,8.17
2017-11-18T08:10:13.763Z,6.50
2017-11-18T08:12:43.178Z,7.05
2017-11-18T08:15:12.541Z,6.53
2017-11-18T08:17:41.968Z,7.40
2017-11-18T08:20:11.344Z,6.90
2017-11-18T08:22:40.742Z,6.37
2017-11-18T08:25:10.103Z,5.90
2017-11-18T08:27:39.550Z,6.50
2017-11-18T08:30:09.040Z,5.90
2017-11-18T08:32:38.425Z,6.27
2017-11-18T08:35:07.803Z,6.33
2017-11-18T08:37:37.214Z,6.10
2017-11-18T08:40:06.576Z,6.07
2017-11-18T08:42:35.949Z,6.20
2017-11-18T08:45:05.337Z,6.90
2017-11-18T08:47:34.709Z,5.73
2017-11-18T08:50:04.128Z,5.80
2017-11-18T08:52:33.498Z,6.20
2017-11-18T08:55:02.958Z,6.27
2017-11-18T08:57:32.346Z,5.30
2017-11-18T09:00:01.769Z,5.80
2017-11-18T09:02:31.135Z,5.40
2017-11-18T09:05:00.552Z,5.53
2017-11-18T09:07:29.926Z,5.53
2017-11-18T09:09:59.340Z,5.77
2017-11-18T09:12:28.753Z,5.83
2017-11-18T09:14:58.176Z,5.30
2017-11-18T09:17:27.553Z,5.67
2017-11-18T09:19:56.936Z,5.50
2017-11-18T09:22:26.317Z,4.97
2017-11-18T09:24:55.773Z,5.43
2017-11-18T09:27:25.173Z,5.70
2017-11-18T09:29:54.567Z,5.70
2017-11-18T09:32:23.932Z,5.67
2017-11-18T09:34:53.367Z,5.33
2017-11-18T09:37:22.740Z,6.07
2017-11-18T09:39:52.198Z,5.37
2017-11-18T09:42:21.564Z,5.43
2017-11-18T09:44:50.977Z,6.43
2017-11-18T09:47:20.384Z,10.10
2017-11-18T09:49:49.799Z,12.23
2017-11-18T09:52:19.169Z,10.07
2017-11-18T09:54:48.565Z,6.90
2017-11-18T09:57:17.950Z,5.50
2017-11-18T09:59:47.368Z,10.17
2017-11-18T10:02:16.740Z,8.20
2017-11-18T10:04:46.149Z,14.27
2017-11-18T10:07:15.526Z,7.80
2017-11-18T10:09:44.982Z,6.60
2017-11-18T10:12:14.360Z,6.60
2017-11-18T10:14:43.753Z,7.60
2017-11-18T10:17:13.121Z,7.57
2017-11-18T10:19:42.517Z,5.60
2017-11-18T10:22:11.887Z,5.27
2017-11-18T10:24:41.445Z,5.57
2017-11-18T10:27:11.196Z,5.07
2017-11-18T10:29:40.557Z,5.30
2017-11-18T10:32:09.945Z,5.23
2017-11-18T10:34:39.309Z,5.47
2017-11-18T10:37:08.710Z,5.47
2017-11-18T10:39:38.085Z,6.50
2017-11-18T10:42:07.620Z,5.30
2017-11-18T10:44:36.976Z,5.37
2017-11-18T10:47:06.374Z,5.60
2017-11-18T10:49:35.741Z,4.40
2017-11-18T10:52:05.192Z,6.80
2017-11-18T10:54:34.572Z,4.67
2017-11-18T10:57:03.972Z,5.70
2017-11-18T10:59:45.813Z,5.23
2017-11-18T11:02:15.223Z,5.50
2017-11-18T11:04:44.602Z,5.20
2017-11-18T11:07:14.032Z,5.10
2017-11-18T11:09:43.396Z,5.27
2017-11-18T11:12:12.789Z,5.07
2017-11-18T11:14:42.197Z,4.40
2017-11-18T11:17:11.609Z,17.10
2017-11-18T11:19:40.977Z,7.53
2017-11-18T11:22:10.377Z,5.73
2017-11-18T11:24:39.756Z,5.53
2017-11-18T11:27:09.153Z,6.10
2017-11-18T11:29:38.538Z,5.90
2017-11-18T11:32:07.946Z,6.03
2017-11-18T11:34:37.324Z,5.20
2017-11-18T11:39:42.368Z,5.50
2017-11-18T11:42:11.773Z,5.23
2017-11-18T11:44:41.150Z,6.00
2017-11-18T11:47:10.555Z,4.50
2017-11-18T11:49:39.946Z,5.30
2017-11-18T11:52:09.323Z,5.00
2017-11-18T11:54:38.710Z,5.20
2017-11-18T11:57:08.097Z,5.40
2017-11-18T11:59:37.468Z,5.73
2017-11-18T12:02:06.909Z,6.20
2017-11-18T12:04:36.303Z,5.40
2017-11-18T12:07:05.719Z,6.90
2017-11-18T12:09:35.092Z,6.83
2017-11-18T12:12:04.524Z,6.53
2017-11-18T12:14:33.891Z,6.40
2017-11-18T12:17:03.299Z,5.50
2017-11-18T12:19:32.668Z,4.73
2017-11-18T12:22:02.045Z,4.97
2017-11-18T12:24:31.460Z,5.07
2017-11-18T12:27:00.845Z,4.87
2017-11-18T12:29:30.240Z,4.57
2017-11-18T12:31:59.609Z,5.13
2017-11-18T12:34:34.524Z,4.50
2017-11-18T12:37:03.898Z,5.63
2017-11-18T12:39:33.293Z,5.43
2017-11-18T12:42:02.658Z,7.13
2017-11-18T12:44:32.061Z,4.23
2017-11-18T12:47:01.453Z,5.50
2017-11-18T12:49:30.850Z,5.30
2017-11-18T12:52:00.217Z,5.33
2017-11-18T12:54:29.646Z,5.60
2017-11-18T12:56:59.008Z,4.10
2017-11-18T12:59:28.409Z,5.90
2017-11-18T13:01:58.257Z,4.73
2017-11-18T13:04:27.654Z,7.03
2017-11-18T13:06:57.050Z,4.53
2017-11-18T13:09:26.445Z,5.20
2017-11-18T13:11:55.853Z,4.20
2017-11-18T13:14:25.279Z,5.57
2017-11-18T13:16:54.670Z,4.67
2017-11-18T13:19:24.060Z,5.33
2017-11-18T13:21:53.440Z,4.40
2017-11-18T13:24:22.937Z,4.20
2017-11-18T13:26:52.332Z,4.23
2017-11-18T13:29:21.721Z,5.10
2017-11-18T13:31:51.090Z,5.30
2017-11-18T13:34:20.496Z,5.03
2017-11-18T13:36:49.880Z,4.47
2017-11-18T13:39:19.260Z,4.43
2017-11-18T13:41:48.628Z,5.20
2017-11-18T13:44:18.018Z,4.50
2017-11-18T13:46:47.391Z,4.87
2017-11-18T13:49:16.778Z,4.70
2017-11-18T13:51:46.150Z,5.00
2017-11-18T13:54:15.601Z,4.80
2017-11-18T13:56:45.006Z,5.00
2017-11-18T13:59:14.413Z,4.60
2017-11-18T14:01:43.771Z,6.00
2017-11-18T14:04:13.185Z,5.17
2017-11-18T14:06:42.562Z,5.80
2017-11-18T14:09:11.980Z,6.03
2017-11-18T14:11:41.377Z,7.10
2017-11-18T14:14:10.757Z,5.60
2017-11-18T14:16:40.130Z,6.10
2017-11-18T14:19:09.516Z,5.93
2017-11-18T14:21:38.893Z,6.93
2017-11-18T14:24:08.316Z,7.30
2017-11-18T14:26:37.710Z,7.30
2017-11-18T14:29:07.184Z,6.60
2017-11-18T14:31:36.553Z,6.93
2017-11-18T14:34:05.954Z,6.50
2017-11-18T14:36:35.329Z,7.37
2017-11-18T14:39:04.726Z,6.60
2017-11-18T14:41:34.098Z,7.60
2017-11-18T14:44:03.553Z,7.00
2017-11-18T14:46:32.974Z,7.10
2017-11-18T14:49:02.360Z,7.80
2017-11-18T14:51:31.737Z,7.10
2017-11-18T14:54:01.182Z,8.23
2017-11-18T14:56:30.573Z,9.00
2017-11-18T14:58:59.997Z,7.93
2017-11-18T15:01:29.428Z,8.87
2017-11-18T15:03:58.883Z,8.23
2017-11-18T15:06:28.294Z,9.20
2017-11-18T15:08:57.680Z,8.10
2017-11-18T15:11:27.065Z,8.53
2017-11-18T15:13:56.430Z,9.17
2017-11-18T15:16:31.729Z,9.37
2017-11-18T15:19:01.120Z,9.00
2017-11-18T15:21:36.490Z,10.47
2017-11-18T15:24:11.667Z,9.80
2017-11-18T15:26:48.516Z,10.37
2017-11-18T15:29:23.573Z,10.80
2017-11-18T15:32:11.661Z,11.93
2017-11-18T15:34:51.476Z,11.33
2017-11-18T15:37:26.643Z,12.70
2017-11-18T15:39:56.100Z,12.03
2017-11-18T15:42:25.534Z,11.53
2017-11-18T15:45:12.589Z,10.03
2017-11-18T15:47:58.716Z,10.80
2017-11-18T15:50:28.188Z,10.20
2017-11-18T15:53:03.618Z,10.10
2017-11-18T15:55:38.883Z,9.40
2017-11-18T15:58:19.368Z,9.20
2017-11-18T16:00:55.061Z,9.67
2017-11-18T16:03:26.030Z,10.77
2017-11-18T16:05:55.938Z,9.80
2017-11-18T16:08:25.890Z,11.53
2017-11-18T16:10:55.677Z,11.03
2017-11-18T16:13:25.337Z,10.77
2017-11-18T16:15:54.727Z,11.37
2017-11-18T16:18:24.484Z,11.30
2017-11-18T16:20:54.196Z,11.67
2017-11-18T16:23:24.217Z,11.83
2017-11-18T16:25:53.639Z,11.23
2017-11-18T16:28:23.298Z,8.57
2017-11-18T16:30:52.982Z,8.80
2017-11-18T16:33:22.708Z,8.50
2017-11-18T16:35:53.049Z,6.67
2017-11-18T16:38:22.816Z,13.83
2017-11-18T16:40:52.218Z,9.87
2017-11-18T16:43:21.597Z,5.77
2017-11-18T16:45:52.440Z,5.43
2017-11-18T16:48:22.421Z,4.00
2017-11-18T16:50:52.723Z,7.40
2017-11-18T16:53:22.444Z,5.60
2017-11-18T16:55:52.688Z,4.80
2017-11-18T16:58:23.249Z,3.37
2017-11-18T17:00:52.642Z,6.40
2017-11-18T17:03:22.330Z,3.70
2017-11-18T17:05:53.140Z,3.80
2017-11-18T17:08:22.686Z,3.90
2017-11-18T17:10:52.477Z,2.87
2017-11-18T17:13:22.201Z,3.13
2017-11-18T17:15:51.725Z,6.10
2017-11-18T17:18:22.453Z,4.20
2017-11-18T17:20:51.921Z,4.20
2017-11-18T17:23:21.315Z,4.70
2017-11-18T17:25:50.682Z,8.70
2017-11-18T17:28:20.072Z,7.10
2017-11-18T17:30:49.516Z,4.77
2017-11-18T17:33:21.653Z,4.63
2017-11-18T17:35:51.009Z,4.00
2017-11-18T17:38:20.449Z,4.40
2017-11-18T17:40:49.812Z,4.17
2017-11-18T17:43:20.327Z,4.93
2017-11-18T17:45:49.693Z,3.67
2017-11-18T17:48:19.095Z,3.50
2017-11-18T17:50:48.480Z,4.00
2017-11-18T17:53:17.922Z,3.20
2017-11-18T17:55:47.654Z,3.73
2017-11-18T17:58:17.059Z,3.13
2017-11-18T18:00:46.733Z,3.47
2017-11-18T18:03:16.128Z,3.13
2017-11-18T18:05:45.515Z,3.40
2017-11-18T18:08:14.917Z,2.63
2017-11-18T18:10:44.307Z,2.80
2017-11-18T18:13:14.446Z,3.10
2017-11-18T18:15:43.822Z,3.00
2017-11-18T18:18:13.240Z,3.63
2017-11-18T18:20:42.604Z,3.53
2017-11-18T18:23:12.013Z,3.77
2017-11-18T18:25:41.465Z,3.40
2017-11-18T18:28:10.898Z,4.17
2017-11-18T18:30:40.372Z,4.40
2017-11-18T18:33:10.030Z,4.90
2017-11-18T18:35:40.032Z,5.63
2017-11-18T18:38:10.749Z,5.23
2017-11-18T18:40:42.371Z,5.40
2017-11-18T18:43:11.786Z,5.80
2017-11-18T18:45:41.148Z,8.03
2017-11-18T18:48:10.533Z,7.03
2017-11-18T18:50:39.933Z,5.23
2017-11-18T18:53:09.318Z,5.87
2017-11-18T18:55:38.699Z,6.67
2017-11-18T18:58:08.298Z,7.90
2017-11-18T19:00:37.706Z,8.50
2017-11-18T19:03:07.086Z,10.50
2017-11-18T19:05:36.489Z,7.37
2017-11-18T19:08:05.870Z,11.53
2017-11-18T19:10:35.310Z,8.80
2017-11-18T19:13:04.678Z,6.40
2017-11-18T19:15:34.071Z,6.20
2017-11-18T19:18:03.715Z,6.20
2017-11-18T19:20:33.751Z,8.40
2017-11-18T19:23:03.146Z,6.97
2017-11-18T19:25:32.549Z,7.80
2017-11-18T19:28:01.982Z,8.97
2017-11-18T19:30:31.409Z,8.63
2017-11-18T19:33:00.802Z,7.30
2017-11-18T19:35:30.210Z,8.17
2017-11-18T19:37:59.942Z,6.37
2017-11-18T19:40:29.368Z,6.57
2017-11-18T19:42:58.746Z,6.70
2017-11-18T19:45:28.174Z,7.27
2017-11-18T19:47:57.577Z,6.33
2017-11-18T19:50:26.967Z,6.33
2017-11-18T19:52:56.325Z,7.20
2017-11-18T19:55:25.741Z,6.30
2017-11-18T19:57:55.119Z,7.70
2017-11-18T20:00:24.528Z,7.17
2017-11-18T20:02:53.906Z,6.53
2017-11-18T20:05:23.268Z,6.30
2017-11-18T20:07:52.666Z,5.03
2017-11-18T20:10:22.044Z,6.47
2017-11-18T20:12:51.477Z,5.63
2017-11-18T20:15:20.819Z,6.30
2017-11-18T20:17:50.213Z,5.87
2017-11-18T20:20:19.576Z,5.53
2017-11-18T20:22:49.006Z,6.00
2017-11-18T20:25:18.430Z,6.00
2017-11-18T20:27:47.835Z,5.57
2017-11-18T20:30:17.358Z,5.83
2017-11-18T20:32:46.857Z,5.37
2017-11-18T20:35:16.234Z,6.33
2017-11-18T20:37:47.751Z,6.27
2017-11-18T20:40:17.477Z,6.10
2017-11-18T20:42:47.019Z,5.73
2017-11-18T20:45:16.392Z,5.70
2017-11-18T20:47:45.829Z,6.13
2017-11-18T20:50:15.214Z,5.83
2017-11-18T20:52:44.602Z,5.70
2017-11-18T20:55:13.969Z,5.17
2017-11-18T20:57:43.364Z,4.70
2017-11-18T21:00:12.776Z,5.50
2017-11-18T21:02:46.133Z,5.30
2017-11-18T21:05:15.535Z,5.40
2017-11-18T21:07:44.942Z,4.90
2017-11-18T21:10:14.305Z,5.60
2017-11-18T21:12:43.734Z,5.50
2017-11-18T21:15:13.127Z,5.60
2017-11-18T21:17:42.492Z,6.57
2017-11-18T21:20:11.938Z,5.50
2017-11-18T21:22:41.309Z,5.40
2017-11-18T21:25:10.712Z,5.60
2017-11-18T21:27:40.084Z,5.43
2017-11-18T21:30:09.531Z,5.87
2017-11-18T21:32:38.910Z,5.60
2017-11-18T21:35:08.459Z,5.90
2017-11-18T21:37:37.872Z,5.63
2017-11-18T21:40:07.301Z,5.27
2017-11-18T21:42:36.706Z,5.47
2017-11-18T21:45:06.100Z,5.60
2017-11-18T21:47:35.525Z,5.30
2017-11-18T21:50:04.982Z,5.73
2017-11-18T21:52:34.354Z,5.43
2017-11-18T21:55:03.753Z,5.37
2017-11-18T21:57:33.116Z,5.93
2017-11-18T22:00:02.974Z,6.00
2017-11-18T22:02:38.016Z,5.23
2017-11-18T22:05:07.408Z,6.07
2017-11-18T22:07:36.782Z,5.70
2017-11-18T22:10:06.177Z,5.47
2017-11-18T22:12:35.548Z,5.03
2017-11-18T22:15:04.967Z,6.17
2017-11-18T22:17:34.347Z,5.53
2017-11-18T22:20:03.753Z,5.30
2017-11-18T22:22:33.130Z,6.60
2017-11-18T22:25:02.565Z,6.57
2017-11-18T22:27:31.952Z,6.20
2017-11-18T22:30:01.351Z,6.07
2017-11-18T22:32:30.726Z,6.97
2017-11-18T22:35:00.168Z,5.77
2017-11-18T22:37:29.548Z,6.50
2017-11-18T22:39:58.965Z,7.50
2017-11-18T22:42:28.343Z,7.37
2017-11-18T22:44:57.729Z,6.40
2017-11-18T22:47:27.095Z,6.10
2017-11-18T22:49:56.496Z,6.23
2017-11-18T22:52:25.906Z,6.70
2017-11-18T22:54:55.314Z,5.73
2017-11-18T22:57:24.691Z,6.80
2017-11-18T22:59:54.177Z,6.23
2017-11-18T23:02:23.556Z,6.80
2017-11-18T23:04:53.065Z,6.57
2017-11-18T23:07:22.506Z,5.67
2017-11-18T23:09:51.911Z,6.23
2017-11-18T23:12:21.333Z,5.90
2017-11-18T23:14:50.708Z,6.10
2017-11-18T23:17:20.092Z,6.10
2017-11-18T23:19:49.489Z,6.83
2017-11-18T23:22:18.916Z,6.40
2017-11-18T23:24:48.289Z,6.97
2017-11-18T23:27:17.701Z,7.13
2017-11-18T23:29:47.061Z,6.80
2017-11-18T23:32:16.466Z,6.90
2017-11-18T23:34:45.863Z,7.37
2017-11-18T23:37:15.261Z,7.30
2017-11-18T23:39:44.641Z,6.57
2017-11-18T23:42:14.910Z,7.20
2017-11-18T23:44:44.278Z,7.13
2017-11-18T23:47:13.672Z,8.50
2017-11-18T23:49:43.055Z,6.83
2017-11-18T23:52:12.462Z,6.43
2017-11-18T23:54:41.890Z,6.60
2017-11-18T23:57:11.288Z,7.07
2017-11-18T23:59:40.720Z,8.20
